createdAt,value
2023-08-30T00:01:54.184Z,100865.56
2023-08-30T00:04:22.403Z,100865.66
2023-08-30T00:06:49.554Z,100868.56
2023-08-30T00:09:17.239Z,100865.25
2023-08-30T00:11:44.164Z,100875.13
2023-08-30T00:14:11.808Z,100862.69
2023-08-30T00:16:39.693Z,100885.31
2023-08-30T00:19:07.238Z,100883.59
2023-08-30T00:21:34.474Z,100879.50
2023-08-30T00:24:01.768Z,100820.88
2023-08-30T00:26:28.732Z,100895.69
2023-08-30T00:28:56.361Z,100896.78
2023-08-30T00:31:23.414Z,100862.56
2023-08-30T00:33:50.706Z,100898.06
2023-08-30T00:36:19.522Z,100903.53
2023-08-30T00:38:46.621Z,100896.03
2023-08-30T00:41:13.690Z,100906.53
2023-08-30T00:43:41.533Z,100901.28
2023-08-30T00:46:08.782Z,100890.00
2023-08-30T00:48:35.828Z,100884.63
2023-08-30T00:51:03.438Z,100876.91
2023-08-30T00:53:30.537Z,100899.41
2023-08-30T00:55:57.856Z,100900.81
2023-08-30T00:58:27.686Z,100906.94
2023-08-30T01:00:54.768Z,100904.44
2023-08-30T01:03:22.896Z,100858.84
2023-08-30T01:05:50.038Z,100901.44
2023-08-30T01:08:17.200Z,100893.72
2023-08-30T01:11:08.533Z,100901.75
2023-08-30T01:13:43.275Z,100909.09
2023-08-30T01:16:10.399Z,100903.97
2023-08-30T01:18:39.450Z,100905.13
2023-08-30T01:21:13.082Z,100908.84
2023-08-30T01:24:01.462Z,100912.72
2023-08-30T01:27:07.513Z,100902.22
2023-08-30T01:29:36.081Z,100901.44
2023-08-30T01:32:07.016Z,100903.38
2023-08-30T01:34:35.691Z,100901.75
2023-08-30T01:37:04.679Z,100866.47
2023-08-30T01:39:32.713Z,100894.03
2023-08-30T01:42:01.779Z,100889.06
2023-08-30T01:44:32.740Z,100863.28
2023-08-30T01:47:00.231Z,100885.75
2023-08-30T01:49:32.950Z,100888.41
2023-08-30T01:52:00.364Z,100887.69
2023-08-30T01:54:29.131Z,100885.19
2023-08-30T01:56:56.240Z,100875.59
2023-08-30T01:59:23.232Z,100874.69
2023-08-30T02:01:52.738Z,100846.25
2023-08-30T02:04:19.754Z,100881.16
2023-08-30T02:07:01.772Z,100876.22
2023-08-30T02:09:36.866Z,100883.50
2023-08-30T02:12:08.136Z,100857.09
2023-08-30T02:14:36.454Z,100888.09
2023-08-30T02:17:04.200Z,100883.03
2023-08-30T02:19:31.504Z,100895.44
2023-08-30T02:21:58.424Z,100902.53
2023-08-30T02:24:25.596Z,100898.97
2023-08-30T02:26:52.744Z,100906.25
2023-08-30T02:29:19.810Z,100915.22
2023-08-30T02:31:46.881Z,100917.13
2023-08-30T02:34:13.912Z,100924.28
2023-08-30T02:36:40.862Z,100927.94
2023-08-30T02:39:08.412Z,100927.16
2023-08-30T02:41:35.626Z,100930.72
2023-08-30T02:44:03.143Z,100918.13
2023-08-30T02:46:30.103Z,100931.88
2023-08-30T02:48:57.158Z,100932.16
2023-08-30T02:51:24.275Z,100929.78
2023-08-30T02:53:51.198Z,100927.75
2023-08-30T02:56:18.342Z,100927.94
2023-08-30T02:58:45.524Z,100925.47
2023-08-30T03:01:12.780Z,100917.63
2023-08-30T03:03:39.677Z,100932.66
2023-08-30T03:06:07.559Z,100927.31
2023-08-30T03:08:34.509Z,100921.47
2023-08-30T03:11:12.423Z,100927.69
2023-08-30T03:13:44.656Z,100929.41
2023-08-30T03:16:13.160Z,100930.38
2023-08-30T03:18:41.252Z,100931.41
2023-08-30T03:21:09.334Z,100920.78
2023-08-30T03:23:36.830Z,100894.56
2023-08-30T03:26:10.790Z,100931.59
2023-08-30T03:28:38.748Z,100925.56
2023-08-30T03:31:20.846Z,100932.94
2023-08-30T03:33:49.699Z,100929.00
2023-08-30T03:36:18.143Z,100934.47
2023-08-30T03:38:46.318Z,100939.72
2023-08-30T03:41:13.891Z,100936.34
2023-08-30T03:43:41.096Z,100943.53
2023-08-30T03:46:10.799Z,100947.91
2023-08-30T03:48:38.007Z,100954.97
2023-08-30T03:51:05.040Z,100931.59
2023-08-30T03:53:33.707Z,100956.81
2023-08-30T03:56:00.774Z,100901.13
2023-08-30T03:58:27.776Z,100960.50
2023-08-30T04:00:54.806Z,100965.56
2023-08-30T04:03:21.889Z,100965.56
2023-08-30T04:05:49.157Z,100937.22
2023-08-30T04:08:16.065Z,100964.53
2023-08-30T04:10:43.627Z,100958.22
2023-08-30T04:13:11.296Z,100953.84
2023-08-30T04:15:40.228Z,100950.22
2023-08-30T04:18:09.175Z,100955.66
2023-08-30T04:20:36.783Z,100948.59
2023-08-30T04:23:04.112Z,100965.47
2023-08-30T04:25:32.274Z,100923.47
2023-08-30T04:27:59.488Z,100963.56
2023-08-30T04:30:27.192Z,100947.53
2023-08-30T04:32:54.365Z,100938.75
2023-08-30T04:35:21.800Z,100938.94
2023-08-30T04:37:49.433Z,100932.75
2023-08-30T04:40:16.482Z,100937.91
2023-08-30T04:42:44.529Z,100928.03
2023-08-30T04:45:12.152Z,100907.16
2023-08-30T04:47:39.328Z,100918.03
2023-08-30T04:50:07.180Z,100918.50
2023-08-30T04:52:34.533Z,100911.25
2023-08-30T04:55:01.662Z,100854.34
2023-08-30T04:57:31.098Z,100909.13
2023-08-30T04:59:58.274Z,100897.13
2023-08-30T05:02:25.348Z,100912.38
2023-08-30T05:04:59.568Z,100906.84
2023-08-30T05:07:26.728Z,100862.56
2023-08-30T05:09:53.749Z,100887.34
2023-08-30T05:12:20.907Z,100866.34
2023-08-30T05:14:47.953Z,100894.56
2023-08-30T05:17:14.848Z,100871.66
2023-08-30T05:19:41.751Z,100893.34
2023-08-30T05:22:08.731Z,100894.94
2023-08-30T05:24:36.598Z,100898.38
2023-08-30T05:27:03.810Z,100877.00
2023-08-30T05:29:38.618Z,100902.56
2023-08-30T05:32:06.121Z,100906.00
2023-08-30T05:34:46.059Z,100903.06
2023-08-30T05:37:21.880Z,100902.88
2023-08-30T05:40:04.643Z,100915.19
2023-08-30T05:42:31.744Z,100904.28
2023-08-30T05:44:58.794Z,100904.16
2023-08-30T05:47:25.892Z,100906.00
2023-08-30T05:49:53.122Z,100909.25
2023-08-30T05:52:20.670Z,100910.09
2023-08-30T05:54:48.181Z,100915.22
2023-08-30T05:57:15.282Z,100890.63
2023-08-30T05:59:42.310Z,100912.34
2023-08-30T06:02:09.305Z,100919.25
2023-08-30T06:04:36.418Z,100894.69
2023-08-30T06:07:04.670Z,100854.41
2023-08-30T06:09:31.748Z,100924.09
2023-08-30T06:11:58.634Z,100892.78
2023-08-30T06:14:25.575Z,100923.69
2023-08-30T06:16:52.632Z,100895.97
2023-08-30T06:19:19.540Z,100921.47
2023-08-30T06:21:46.552Z,100926.50
2023-08-30T06:24:13.762Z,100891.97
2023-08-30T06:26:40.706Z,100926.94
2023-08-30T06:29:07.605Z,100928.56
2023-08-30T06:31:34.733Z,100928.47
2023-08-30T06:34:01.716Z,100931.66
2023-08-30T06:36:28.741Z,100945.63
2023-08-30T06:38:56.094Z,100941.84
2023-08-30T06:41:23.084Z,100945.19
2023-08-30T06:43:50.129Z,100934.47
2023-08-30T06:46:17.650Z,100950.69
2023-08-30T06:48:45.765Z,100956.59
2023-08-30T06:51:12.775Z,100959.91
2023-08-30T06:53:39.829Z,100960.69
2023-08-30T06:56:06.755Z,100968.28
2023-08-30T06:58:33.702Z,100974.22
2023-08-30T07:01:01.533Z,100973.03
2023-08-30T07:03:28.487Z,100956.09
2023-08-30T07:05:55.583Z,100953.66
2023-08-30T07:08:22.774Z,100925.63
2023-08-30T07:10:50.417Z,100943.25
2023-08-30T07:13:17.413Z,100933.06
2023-08-30T07:15:44.448Z,100938.09
2023-08-30T07:18:11.824Z,100937.78
2023-08-30T07:20:40.314Z,100933.91
2023-08-30T07:23:09.969Z,100938.00
2023-08-30T07:25:38.944Z,100941.28
2023-08-30T07:28:07.109Z,100934.09
2023-08-30T07:30:36.293Z,100939.78
2023-08-30T07:33:05.568Z,100928.19
2023-08-30T07:35:34.069Z,100941.81
2023-08-30T07:38:01.416Z,100939.66
2023-08-30T07:40:30.096Z,100937.47
2023-08-30T07:43:04.786Z,100932.66
2023-08-30T07:45:31.914Z,100926.84
2023-08-30T07:47:58.939Z,100920.69
2023-08-30T07:50:26.060Z,100928.72
2023-08-30T07:52:53.127Z,100932.81
2023-08-30T07:55:20.025Z,100930.50
2023-08-30T07:57:47.290Z,100923.19
2023-08-30T08:00:14.660Z,100928.13
2023-08-30T08:02:45.566Z,100920.63
2023-08-30T08:05:12.678Z,100936.03
2023-08-30T08:07:41.595Z,100925.28
2023-08-30T08:10:08.943Z,100939.63
2023-08-30T08:12:37.047Z,100945.41
2023-08-30T08:15:04.500Z,100943.94
2023-08-30T08:17:31.379Z,100937.16
2023-08-30T08:19:58.595Z,100938.63
2023-08-30T08:22:25.631Z,100934.63
2023-08-30T08:24:54.872Z,100880.16
2023-08-30T08:27:21.802Z,100928.19
2023-08-30T08:29:48.839Z,100905.94
2023-08-30T08:32:16.050Z,100927.88
2023-08-30T08:34:43.243Z,100916.00
2023-08-30T08:37:10.411Z,100918.22
2023-08-30T08:39:37.482Z,100928.13
2023-08-30T08:42:05.158Z,100919.06
2023-08-30T08:44:33.526Z,100914.94
2023-08-30T08:47:02.118Z,100914.22
2023-08-30T08:49:30.600Z,100920.94
2023-08-30T08:51:58.468Z,100919.50
2023-08-30T08:54:27.026Z,100917.06
2023-08-30T08:56:54.601Z,100865.91
2023-08-30T08:59:22.807Z,100916.78
2023-08-30T09:01:49.909Z,100926.91
2023-08-30T09:04:16.999Z,100931.59
2023-08-30T09:06:46.836Z,100925.81
2023-08-30T09:09:14.586Z,100919.19
2023-08-30T09:14:11.453Z,100918.91
2023-08-30T09:16:38.537Z,100932.50
2023-08-30T09:21:36.103Z,100943.25
2023-08-30T09:24:07.708Z,100934.06
2023-08-30T09:26:38.682Z,100933.69
2023-08-30T09:29:09.822Z,100939.66
2023-08-30T09:31:38.796Z,100934.00
2023-08-30T09:34:06.421Z,100919.22
2023-08-30T09:36:43.182Z,100887.88
2023-08-30T09:39:12.038Z,100931.88
2023-08-30T09:41:43.519Z,100928.56
2023-08-30T09:44:14.501Z,100938.59
2023-08-30T09:46:55.566Z,100938.31
2023-08-30T09:49:24.607Z,100898.34
2023-08-30T09:52:45.716Z,100929.97
2023-08-30T09:54:45.004Z,100932.41
2023-08-30T09:57:12.109Z,100921.88
2023-08-30T09:59:40.649Z,100939.00
2023-08-30T10:02:09.605Z,100930.03
2023-08-30T10:04:41.538Z,100932.47
2023-08-30T10:07:10.233Z,100941.31
2023-08-30T10:09:55.243Z,100935.78
2023-08-30T10:12:30.396Z,100924.84
2023-08-30T10:14:58.204Z,100927.56
2023-08-30T10:17:33.337Z,100925.47
2023-08-30T10:20:04.991Z,100928.16
2023-08-30T10:22:33.580Z,100930.72
2023-08-30T10:25:18.124Z,100908.47
2023-08-30T10:27:48.308Z,100923.19
2023-08-30T10:30:17.975Z,100918.53
2023-08-30T10:32:46.744Z,100922.81
2023-08-30T10:35:19.196Z,100917.28
2023-08-30T10:38:00.910Z,100912.00
2023-08-30T10:40:28.039Z,100877.44
2023-08-30T10:43:05.111Z,100907.94
2023-08-30T10:45:32.392Z,100913.91
2023-08-30T10:48:00.801Z,100921.75
2023-08-30T10:50:33.264Z,100887.69
2023-08-30T10:53:00.840Z,100914.78
2023-08-30T10:55:28.289Z,100926.75
2023-08-30T10:58:08.163Z,100908.59
2023-08-30T11:00:37.049Z,100939.00
2023-08-30T11:03:04.785Z,100936.16
2023-08-30T11:05:32.051Z,100911.94
2023-08-30T11:07:58.969Z,100933.09
2023-08-30T11:10:26.835Z,100931.97
2023-08-30T11:12:53.916Z,100929.13
2023-08-30T11:15:22.018Z,100933.56
2023-08-30T11:17:49.321Z,100939.91
2023-08-30T11:20:21.924Z,100929.84
2023-08-30T11:22:50.635Z,100926.16
2023-08-30T11:25:18.303Z,100883.94
2023-08-30T11:27:47.244Z,100924.31
2023-08-30T11:30:14.369Z,100928.44
2023-08-30T11:32:44.659Z,100861.41
2023-08-30T11:35:12.442Z,100929.00
2023-08-30T11:37:41.513Z,100913.69
2023-08-30T11:40:09.037Z,100939.78
2023-08-30T11:42:36.164Z,100931.81
2023-08-30T11:45:05.394Z,100929.13
2023-08-30T11:47:32.449Z,100932.69
2023-08-30T11:50:00.656Z,100934.38
2023-08-30T11:52:28.816Z,100875.97
2023-08-30T11:54:56.330Z,100933.72
2023-08-30T11:57:23.801Z,100930.31
2023-08-30T11:59:52.003Z,100934.03
2023-08-30T12:02:19.785Z,100927.06
2023-08-30T12:04:48.931Z,100930.09
2023-08-30T12:07:26.539Z,100928.09
2023-08-30T12:09:54.574Z,100928.81
2023-08-30T12:12:24.729Z,100924.97
2023-08-30T12:14:58.182Z,100910.59
2023-08-30T12:17:25.465Z,100925.97
2023-08-30T12:19:59.243Z,100917.88
2023-08-30T12:22:40.375Z,100921.59
2023-08-30T12:25:28.413Z,100920.84
2023-08-30T12:27:55.438Z,100902.31
2023-08-30T12:30:22.479Z,100884.09
2023-08-30T12:32:50.022Z,100917.28
2023-08-30T12:35:17.214Z,100921.13
2023-08-30T12:37:44.493Z,100896.47
2023-08-30T12:40:12.176Z,100911.88
2023-08-30T12:42:39.237Z,100849.00
2023-08-30T12:45:06.868Z,100912.63
2023-08-30T12:47:34.228Z,100917.88
2023-08-30T12:50:01.187Z,100920.91
2023-08-30T12:52:28.475Z,100919.75
2023-08-30T12:54:55.655Z,100907.13
2023-08-30T12:57:22.549Z,100908.69
2023-08-30T12:59:53.570Z,100907.53
2023-08-30T13:02:20.881Z,100878.38
2023-08-30T13:04:47.819Z,100895.91
2023-08-30T13:07:14.791Z,100899.31
2023-08-30T13:09:41.902Z,100888.78
2023-08-30T13:12:09.227Z,100901.16
2023-08-30T13:14:36.208Z,100900.91
2023-08-30T13:17:03.977Z,100889.94
2023-08-30T13:19:30.918Z,100895.94
2023-08-30T13:21:58.706Z,100898.38
2023-08-30T13:24:25.823Z,100898.91
2023-08-30T13:26:52.729Z,100886.13
2023-08-30T13:29:19.695Z,100876.47
2023-08-30T13:31:46.758Z,100888.28
2023-08-30T13:34:13.745Z,100859.09
2023-08-30T13:36:41.095Z,100888.00
2023-08-30T13:39:08.112Z,100886.16
2023-08-30T13:41:36.937Z,100893.72
2023-08-30T13:44:07.294Z,100842.00
2023-08-30T13:46:34.976Z,100888.16
2023-08-30T13:49:02.054Z,100888.31
2023-08-30T13:51:29.077Z,100818.00
2023-08-30T13:53:56.098Z,100901.41
2023-08-30T13:56:23.872Z,100859.41
2023-08-30T13:58:51.132Z,100902.50
2023-08-30T14:01:18.423Z,100900.09
2023-08-30T14:03:45.438Z,100911.47
2023-08-30T14:06:12.800Z,100895.97
2023-08-30T14:08:40.070Z,100914.91
2023-08-30T14:11:07.261Z,100912.63
2023-08-30T14:13:34.293Z,100896.66
2023-08-30T14:16:03.946Z,100907.19
2023-08-30T14:18:31.695Z,100906.34
2023-08-30T14:21:02.705Z,100903.91
2023-08-30T14:23:34.335Z,100881.84
2023-08-30T14:26:12.793Z,100918.59
2023-08-30T14:28:41.313Z,100901.19
2023-08-30T14:31:11.983Z,100919.44
2023-08-30T14:33:41.215Z,100918.59
2023-08-30T14:36:12.085Z,100910.03
2023-08-30T14:38:39.864Z,100913.47
2023-08-30T14:41:07.209Z,100916.59
2023-08-30T14:43:34.724Z,100921.00
2023-08-30T14:46:12.459Z,100911.88
2023-08-30T14:48:41.783Z,100928.22
2023-08-30T14:51:09.626Z,100912.84
2023-08-30T14:53:37.083Z,100924.97
2023-08-30T14:56:08.117Z,100927.53
2023-08-30T14:58:38.257Z,100924.97
2023-08-30T15:01:06.041Z,100920.69
2023-08-30T15:03:33.428Z,100935.31
2023-08-30T15:06:00.429Z,100909.69
2023-08-30T15:08:27.467Z,100929.47
2023-08-30T15:10:54.617Z,100934.16
2023-08-30T15:13:22.170Z,100931.84
2023-08-30T15:15:49.476Z,100932.84
2023-08-30T15:18:17.037Z,100922.88
2023-08-30T15:20:44.509Z,100940.97
2023-08-30T15:23:18.268Z,100933.88
2023-08-30T15:25:47.695Z,100927.88
2023-08-30T15:28:15.627Z,100938.53
2023-08-30T15:30:43.969Z,100929.56
2023-08-30T15:33:11.717Z,100928.88
2023-08-30T15:35:40.505Z,100923.75
2023-08-30T15:38:08.643Z,100934.13
2023-08-30T15:40:36.340Z,100914.91
2023-08-30T15:43:03.925Z,100930.72
2023-08-30T15:45:31.332Z,100925.44
2023-08-30T15:47:58.284Z,100917.16
2023-08-30T15:50:25.414Z,100921.75
2023-08-30T15:52:52.714Z,100907.34
2023-08-30T15:55:20.860Z,100923.75
2023-08-30T15:57:47.853Z,100924.56
2023-08-30T16:00:15.907Z,100910.50
2023-08-30T16:02:42.986Z,100858.66
2023-08-30T16:05:10.092Z,100908.66
2023-08-30T16:07:37.034Z,100883.00
2023-08-30T16:10:05.176Z,100896.41
2023-08-30T16:12:32.393Z,100850.53
2023-08-30T16:14:59.487Z,100897.41
2023-08-30T16:17:26.610Z,100901.09
2023-08-30T16:19:53.874Z,100896.69
2023-08-30T16:22:21.405Z,100894.00
2023-08-30T16:24:48.365Z,100878.75
2023-08-30T16:27:15.277Z,100884.56
2023-08-30T16:29:42.336Z,100897.69
2023-08-30T16:32:09.279Z,100895.97
2023-08-30T16:34:37.843Z,100905.94
2023-08-30T16:37:05.038Z,100895.25
2023-08-30T16:39:32.050Z,100897.09
2023-08-30T16:41:59.197Z,100898.78
2023-08-30T16:44:26.399Z,100883.97
2023-08-30T16:46:53.387Z,100886.53
2023-08-30T16:49:20.427Z,100896.78
2023-08-30T16:51:47.553Z,100893.34
2023-08-30T16:54:14.689Z,100906.84
2023-08-30T16:56:41.612Z,100906.00
2023-08-30T16:59:08.678Z,100901.44
2023-08-30T17:01:35.617Z,100904.16
2023-08-30T17:04:02.599Z,100907.84
2023-08-30T17:06:29.698Z,100913.13
2023-08-30T17:08:56.842Z,100908.84
2023-08-30T17:11:23.870Z,100898.19
2023-08-30T17:13:50.966Z,100890.50
2023-08-30T17:16:17.941Z,100893.19
2023-08-30T17:18:44.920Z,100889.75
2023-08-30T17:21:13.851Z,100886.19
2023-08-30T17:23:41.311Z,100879.25
2023-08-30T17:26:08.539Z,100887.47
2023-08-30T17:28:37.026Z,100880.63
2023-08-30T17:31:07.059Z,100881.25
2023-08-30T17:33:34.783Z,100880.69
2023-08-30T17:36:05.143Z,100876.94
2023-08-30T17:38:32.807Z,100877.25
2023-08-30T17:40:59.899Z,100838.06
2023-08-30T17:43:27.176Z,100878.41
2023-08-30T17:45:54.495Z,100881.09
2023-08-30T17:48:21.623Z,100873.13
2023-08-30T17:50:48.594Z,100817.44
2023-08-30T17:53:17.040Z,100839.66
2023-08-30T17:55:44.121Z,100816.97
2023-08-30T17:58:11.338Z,100862.41
2023-08-30T18:00:38.221Z,100861.31
2023-08-30T18:03:05.356Z,100829.75
2023-08-30T18:05:32.513Z,100849.41
2023-08-30T18:07:59.473Z,100861.75
2023-08-30T18:10:26.555Z,100861.75
2023-08-30T18:13:13.852Z,100857.16
2023-08-30T18:16:01.167Z,100818.81
2023-08-30T18:18:48.236Z,100874.94
2023-08-30T18:21:35.125Z,100856.72
2023-08-30T18:24:34.077Z,100866.84
2023-08-30T18:27:20.898Z,100874.81
2023-08-30T18:30:08.027Z,100871.22
2023-08-30T18:32:55.720Z,100868.53
2023-08-30T18:35:42.728Z,100874.81
2023-08-30T18:38:29.884Z,100862.28
2023-08-30T18:41:17.091Z,100876.75
2023-08-30T18:44:04.719Z,100869.66
2023-08-30T18:46:51.898Z,100867.94
2023-08-30T18:49:39.841Z,100869.94
2023-08-30T18:52:27.062Z,100874.47
2023-08-30T18:55:14.049Z,100872.75
2023-08-30T18:58:01.317Z,100873.72
2023-08-30T19:00:52.073Z,100870.72
2023-08-30T19:03:39.479Z,100851.44
2023-08-30T19:06:26.615Z,100860.00
2023-08-30T19:09:14.550Z,100826.75
2023-08-30T19:12:01.456Z,100875.91
2023-08-30T19:14:48.582Z,100869.50
2023-08-30T19:17:35.626Z,100861.56
2023-08-30T19:20:22.789Z,100839.09
2023-08-30T19:23:10.197Z,100860.81
2023-08-30T19:25:57.636Z,100861.81
2023-08-30T19:28:45.212Z,100860.13
2023-08-30T19:31:32.259Z,100858.53
2023-08-30T19:34:19.250Z,100861.47
2023-08-30T19:37:06.297Z,100845.47
2023-08-30T19:39:53.357Z,100852.81
2023-08-30T19:42:40.441Z,100860.78
2023-08-30T19:45:28.672Z,100846.31
2023-08-30T19:48:15.750Z,100857.72
2023-08-30T19:51:12.080Z,100854.53
2023-08-30T19:53:59.120Z,100870.34
2023-08-30T19:56:46.152Z,100863.25
2023-08-30T19:59:33.041Z,100867.88
2023-08-30T20:02:20.094Z,100859.91
2023-08-30T20:05:07.022Z,100848.94
2023-08-30T20:07:54.359Z,100844.91
2023-08-30T20:10:41.549Z,100855.31
2023-08-30T20:13:28.458Z,100843.00
2023-08-30T20:16:23.274Z,100859.84
2023-08-30T20:19:10.216Z,100872.47
2023-08-30T20:21:57.286Z,100873.44
2023-08-30T20:24:44.743Z,100883.38
2023-08-30T20:27:31.934Z,100863.44
2023-08-30T20:30:18.847Z,100868.31
2023-08-30T20:33:06.389Z,100879.06
2023-08-30T20:35:56.822Z,100871.13
2023-08-30T20:38:43.828Z,100868.56
2023-08-30T20:41:30.782Z,100866.84
2023-08-30T20:44:17.828Z,100863.28
2023-08-30T20:47:04.749Z,100854.63
2023-08-30T20:49:51.836Z,100814.94
2023-08-30T20:52:38.851Z,100852.31
2023-08-30T20:55:39.321Z,100847.72
2023-08-30T20:58:28.037Z,100864.31
2023-08-30T21:01:17.148Z,100869.13
2023-08-30T21:04:04.426Z,100833.03
2023-08-30T21:06:51.467Z,100808.75
2023-08-30T21:09:38.441Z,100789.56
2023-08-30T21:12:25.807Z,100855.44
2023-08-30T21:15:12.795Z,100857.25
2023-08-30T21:18:00.297Z,100854.44
2023-08-30T21:20:47.527Z,100851.25
2023-08-30T21:24:24.393Z,100858.25
2023-08-30T21:27:11.444Z,100845.03
2023-08-30T21:30:01.535Z,100844.91
2023-08-30T21:32:48.567Z,100836.22
2023-08-30T21:35:35.714Z,100827.84
2023-08-30T21:38:22.686Z,100852.03
2023-08-30T21:41:09.629Z,100846.06
2023-08-30T21:43:56.637Z,100838.81
2023-08-30T21:46:43.851Z,100844.06
2023-08-30T21:49:30.896Z,100848.63
2023-08-30T21:52:17.814Z,100841.16
2023-08-30T21:55:04.929Z,100845.44
2023-08-30T21:57:51.940Z,100849.84
2023-08-30T22:00:38.951Z,100843.00
2023-08-30T22:03:26.609Z,100831.03
2023-08-30T22:06:20.120Z,100853.63
2023-08-30T22:09:07.393Z,100843.50
2023-08-30T22:11:55.436Z,100846.69
2023-08-30T22:14:49.416Z,100842.38
2023-08-30T22:17:37.451Z,100847.91
2023-08-30T22:20:24.891Z,100848.03
2023-08-30T22:23:12.068Z,100840.69
2023-08-30T22:25:59.360Z,100830.91
2023-08-30T22:28:46.326Z,100824.03
2023-08-30T22:31:33.299Z,100824.16
2023-08-30T22:34:20.259Z,100827.59
2023-08-30T22:37:07.326Z,100834.06
2023-08-30T22:39:54.419Z,100838.00
2023-08-30T22:42:41.528Z,100837.38
2023-08-30T22:45:29.536Z,100830.81
2023-08-30T22:48:16.873Z,100847.44
2023-08-30T22:51:03.767Z,100830.56
2023-08-30T22:53:53.786Z,100818.22
2023-08-30T22:56:41.902Z,100816.13
2023-08-30T22:59:29.627Z,100818.47
2023-08-30T23:01:56.737Z,100813.34
2023-08-30T23:04:23.780Z,100810.72
2023-08-30T23:06:52.019Z,100798.13
2023-08-30T23:09:22.088Z,100790.09
2023-08-30T23:11:49.702Z,100802.03
2023-08-30T23:14:16.970Z,100798.47
2023-08-30T23:16:44.519Z,100798.72
2023-08-30T23:19:11.530Z,100803.25
2023-08-30T23:21:38.879Z,100802.53
2023-08-30T23:24:06.325Z,100795.44
2023-08-30T23:26:33.386Z,100797.28
2023-08-30T23:29:00.540Z,100783.97
2023-08-30T23:31:27.617Z,100782.47
2023-08-30T23:33:54.577Z,100772.94
2023-08-30T23:36:24.356Z,100759.38
2023-08-30T23:38:52.375Z,100771.84
2023-08-30T23:41:20.919Z,100727.38
2023-08-30T23:43:47.993Z,100763.19
2023-08-30T23:46:15.155Z,100750.09
2023-08-30T23:48:42.150Z,100753.50
2023-08-30T23:51:09.532Z,100736.53
2023-08-30T23:53:37.044Z,100743.50
2023-08-30T23:56:04.340Z,100765.38
2023-08-30T23:58:31.373Z,100726.16
